sensor_id;sensor_type;location;lat;lon;timestamp;P1;durP1;ratioP1;P2;durP2;ratioP2
21309;SDS011;10814;51.722;8.772;2024-02-23T00:00:37;1.58;;;0.60;;
21309;SDS011;10814;51.722;8.772;2024-02-23T00:03:03;1.42;;;0.40;;
21309;SDS011;10814;51.722;8.772;2024-02-23T00:05:29;1.67;;;0.60;;
21309;SDS011;10814;51.722;8.772;2024-02-23T00:07:55;2.33;;;0.73;;
21309;SDS011;10814;51.722;8.772;2024-02-23T00:10:20;3.60;;;0.50;;
21309;SDS011;10814;51.722;8.772;2024-02-23T00:12:46;2.10;;;0.57;;
21309;SDS011;10814;51.722;8.772;2024-02-23T00:15:12;1.63;;;0.43;;
21309;SDS011;10814;51.722;8.772;2024-02-23T00:17:38;1.05;;;0.57;;
21309;SDS011;10814;51.722;8.772;2024-02-23T00:20:04;1.08;;;0.40;;
21309;SDS011;10814;51.722;8.772;2024-02-23T00:22:35;1.27;;;0.40;;
21309;SDS011;10814;51.722;8.772;2024-02-23T00:25:01;0.75;;;0.35;;
21309;SDS011;10814;51.722;8.772;2024-02-23T00:27:27;1.40;;;0.40;;
21309;SDS011;10814;51.722;8.772;2024-02-23T00:29:52;1.25;;;0.40;;
21309;SDS011;10814;51.722;8.772;2024-02-23T00:32:18;2.42;;;0.20;;
21309;SDS011;10814;51.722;8.772;2024-02-23T00:34:43;1.38;;;0.57;;
21309;SDS011;10814;51.722;8.772;2024-02-23T00:37:09;0.63;;;0.40;;
21309;SDS011;10814;51.722;8.772;2024-02-23T00:39:35;0.77;;;0.30;;
21309;SDS011;10814;51.722;8.772;2024-02-23T00:42:01;2.03;;;0.30;;
21309;SDS011;10814;51.722;8.772;2024-02-23T00:44:27;1.85;;;0.40;;
21309;SDS011;10814;51.722;8.772;2024-02-23T00:46:52;1.33;;;0.28;;
21309;SDS011;10814;51.722;8.772;2024-02-23T00:49:18;0.50;;;0.30;;
21309;SDS011;10814;51.722;8.772;2024-02-23T00:51:44;1.75;;;0.30;;
21309;SDS011;10814;51.722;8.772;2024-02-23T00:54:09;0.45;;;0.30;;
21309;SDS011;10814;51.722;8.772;2024-02-23T00:56:35;0.70;;;0.20;;
21309;SDS011;10814;51.722;8.772;2024-02-23T00:59:01;0.30;;;0.17;;
21309;SDS011;10814;51.722;8.772;2024-02-23T01:01:26;0.55;;;0.20;;
21309;SDS011;10814;51.722;8.772;2024-02-23T01:03:53;2.03;;;0.43;;
21309;SDS011;10814;51.722;8.772;2024-02-23T01:06:19;0.57;;;0.13;;
21309;SDS011;10814;51.722;8.772;2024-02-23T01:08:44;1.48;;;0.30;;
21309;SDS011;10814;51.722;8.772;2024-02-23T01:11:10;1.42;;;0.20;;
21309;SDS011;10814;51.722;8.772;2024-02-23T01:13:36;1.80;;;0.30;;
21309;SDS011;10814;51.722;8.772;2024-02-23T01:16:01;0.60;;;0.30;;
21309;SDS011;10814;51.722;8.772;2024-02-23T01:18:27;0.70;;;0.40;;
21309;SDS011;10814;51.722;8.772;2024-02-23T01:20:53;0.68;;;0.32;;
21309;SDS011;10814;51.722;8.772;2024-02-23T01:23:18;0.20;;;0.20;;
21309;SDS011;10814;51.722;8.772;2024-02-23T01:25:44;1.55;;;0.30;;
21309;SDS011;10814;51.722;8.772;2024-02-23T01:28:10;0.20;;;0.20;;
21309;SDS011;10814;51.722;8.772;2024-02-23T01:30:35;0.28;;;0.20;;
21309;SDS011;10814;51.722;8.772;2024-02-23T01:33:01;0.65;;;0.35;;
21309;SDS011;10814;51.722;8.772;2024-02-23T01:35:27;0.45;;;0.30;;
21309;SDS011;10814;51.722;8.772;2024-02-23T01:37:54;0.95;;;0.20;;
21309;SDS011;10814;51.722;8.772;2024-02-23T01:40:19;0.32;;;0.30;;
21309;SDS011;10814;51.722;8.772;2024-02-23T01:42:45;0.40;;;0.15;;
21309;SDS011;10814;51.722;8.772;2024-02-23T01:45:10;0.45;;;0.20;;
21309;SDS011;10814;51.722;8.772;2024-02-23T01:47:36;0.43;;;0.20;;
21309;SDS011;10814;51.722;8.772;2024-02-23T01:50:03;0.20;;;0.20;;
21309;SDS011;10814;51.722;8.772;2024-02-23T01:52:28;0.30;;;0.25;;
21309;SDS011;10814;51.722;8.772;2024-02-23T01:54:55;0.40;;;0.30;;
21309;SDS011;10814;51.722;8.772;2024-02-23T01:57:21;1.45;;;0.20;;
21309;SDS011;10814;51.722;8.772;2024-02-23T01:59:48;0.30;;;0.22;;
21309;SDS011;10814;51.722;8.772;2024-02-23T02:02:14;0.30;;;0.25;;
21309;SDS011;10814;51.722;8.772;2024-02-23T02:04:40;0.63;;;0.35;;
21309;SDS011;10814;51.722;8.772;2024-02-23T02:07:06;0.60;;;0.45;;
21309;SDS011;10814;51.722;8.772;2024-02-23T02:09:31;0.80;;;0.50;;
21309;SDS011;10814;51.722;8.772;2024-02-23T02:11:58;0.85;;;0.50;;
21309;SDS011;10814;51.722;8.772;2024-02-23T02:14:23;0.50;;;0.50;;
21309;SDS011;10814;51.722;8.772;2024-02-23T02:16:49;0.57;;;0.57;;
21309;SDS011;10814;51.722;8.772;2024-02-23T02:19:14;0.50;;;0.50;;
21309;SDS011;10814;51.722;8.772;2024-02-23T02:21:40;1.95;;;0.80;;
21309;SDS011;10814;51.722;8.772;2024-02-23T02:24:06;0.88;;;0.60;;
21309;SDS011;10814;51.722;8.772;2024-02-23T02:26:33;0.50;;;0.50;;
21309;SDS011;10814;51.722;8.772;2024-02-23T02:28:59;1.08;;;0.70;;
21309;SDS011;10814;51.722;8.772;2024-02-23T02:31:26;0.68;;;0.60;;
21309;SDS011;10814;51.722;8.772;2024-02-23T02:33:51;0.95;;;0.68;;
21309;SDS011;10814;51.722;8.772;2024-02-23T02:36:17;0.80;;;0.50;;
21309;SDS011;10814;51.722;8.772;2024-02-23T02:38:42;0.65;;;0.50;;
21309;SDS011;10814;51.722;8.772;2024-02-23T02:41:08;0.75;;;0.40;;
21309;SDS011;10814;51.722;8.772;2024-02-23T02:43:34;1.00;;;0.75;;
21309;SDS011;10814;51.722;8.772;2024-02-23T02:45:59;0.88;;;0.60;;
21309;SDS011;10814;51.722;8.772;2024-02-23T02:48:25;0.65;;;0.40;;
21309;SDS011;10814;51.722;8.772;2024-02-23T02:50:51;0.45;;;0.45;;
21309;SDS011;10814;51.722;8.772;2024-02-23T02:53:17;1.00;;;0.70;;
21309;SDS011;10814;51.722;8.772;2024-02-23T02:55:43;2.17;;;0.70;;
21309;SDS011;10814;51.722;8.772;2024-02-23T02:58:10;1.15;;;0.70;;
21309;SDS011;10814;51.722;8.772;2024-02-23T03:00:36;3.70;;;0.60;;
21309;SDS011;10814;51.722;8.772;2024-02-23T03:03:02;3.03;;;0.80;;
21309;SDS011;10814;51.722;8.772;2024-02-23T03:05:27;1.73;;;0.75;;
21309;SDS011;10814;51.722;8.772;2024-02-23T03:07:56;2.72;;;0.77;;
21309;SDS011;10814;51.722;8.772;2024-02-23T03:10:22;3.17;;;0.80;;
21309;SDS011;10814;51.722;8.772;2024-02-23T03:12:47;2.72;;;0.60;;
21309;SDS011;10814;51.722;8.772;2024-02-23T03:15:13;2.17;;;0.50;;
21309;SDS011;10814;51.722;8.772;2024-02-23T03:17:38;2.33;;;0.60;;
21309;SDS011;10814;51.722;8.772;2024-02-23T03:20:04;5.30;;;1.00;;
21309;SDS011;10814;51.722;8.772;2024-02-23T03:22:33;2.85;;;0.77;;
21309;SDS011;10814;51.722;8.772;2024-02-23T03:24:59;2.50;;;0.63;;
21309;SDS011;10814;51.722;8.772;2024-02-23T03:27:27;1.80;;;0.75;;
21309;SDS011;10814;51.722;8.772;2024-02-23T03:29:54;1.38;;;0.73;;
21309;SDS011;10814;51.722;8.772;2024-02-23T03:32:19;2.05;;;0.60;;
21309;SDS011;10814;51.722;8.772;2024-02-23T03:34:45;2.05;;;0.50;;
21309;SDS011;10814;51.722;8.772;2024-02-23T03:37:11;0.82;;;0.50;;
21309;SDS011;10814;51.722;8.772;2024-02-23T03:39:36;1.23;;;0.57;;
21309;SDS011;10814;51.722;8.772;2024-02-23T03:42:03;1.10;;;0.57;;
21309;SDS011;10814;51.722;8.772;2024-02-23T03:44:28;3.97;;;0.73;;
21309;SDS011;10814;51.722;8.772;2024-02-23T03:46:54;1.70;;;0.60;;
21309;SDS011;10814;51.722;8.772;2024-02-23T03:49:20;0.77;;;0.50;;
21309;SDS011;10814;51.722;8.772;2024-02-23T03:51:45;1.58;;;0.57;;
21309;SDS011;10814;51.722;8.772;2024-02-23T03:54:11;1.58;;;0.63;;
21309;SDS011;10814;51.722;8.772;2024-02-23T03:56:37;1.98;;;0.70;;
21309;SDS011;10814;51.722;8.772;2024-02-23T03:59:07;0.77;;;0.50;;
21309;SDS011;10814;51.722;8.772;2024-02-23T04:01:38;2.67;;;0.60;;
21309;SDS011;10814;51.722;8.772;2024-02-23T04:04:04;3.10;;;0.80;;
21309;SDS011;10814;51.722;8.772;2024-02-23T04:06:30;2.95;;;0.70;;
21309;SDS011;10814;51.722;8.772;2024-02-23T04:08:56;2.22;;;0.60;;
21309;SDS011;10814;51.722;8.772;2024-02-23T04:11:22;2.83;;;0.68;;
21309;SDS011;10814;51.722;8.772;2024-02-23T04:13:47;2.13;;;0.57;;
21309;SDS011;10814;51.722;8.772;2024-02-23T04:16:13;2.75;;;0.50;;
21309;SDS011;10814;51.722;8.772;2024-02-23T04:18:38;1.63;;;0.50;;
21309;SDS011;10814;51.722;8.772;2024-02-23T04:21:04;1.23;;;0.50;;
21309;SDS011;10814;51.722;8.772;2024-02-23T04:23:30;0.88;;;0.40;;
21309;SDS011;10814;51.722;8.772;2024-02-23T04:25:55;2.72;;;0.68;;
21309;SDS011;10814;51.722;8.772;2024-02-23T04:28:21;2.05;;;0.63;;
21309;SDS011;10814;51.722;8.772;2024-02-23T04:30:47;3.40;;;0.60;;
21309;SDS011;10814;51.722;8.772;2024-02-23T04:33:12;2.30;;;0.65;;
21309;SDS011;10814;51.722;8.772;2024-02-23T04:35:38;4.38;;;0.90;;
21309;SDS011;10814;51.722;8.772;2024-02-23T04:38:03;2.85;;;0.65;;
21309;SDS011;10814;51.722;8.772;2024-02-23T04:40:29;3.30;;;0.60;;
21309;SDS011;10814;51.722;8.772;2024-02-23T04:42:54;4.63;;;0.80;;
21309;SDS011;10814;51.722;8.772;2024-02-23T04:45:20;3.70;;;0.73;;
21309;SDS011;10814;51.722;8.772;2024-02-23T04:47:46;1.77;;;0.43;;
21309;SDS011;10814;51.722;8.772;2024-02-23T04:50:13;3.00;;;0.80;;
21309;SDS011;10814;51.722;8.772;2024-02-23T04:52:39;4.03;;;1.00;;
21309;SDS011;10814;51.722;8.772;2024-02-23T04:55:04;3.42;;;0.73;;
21309;SDS011;10814;51.722;8.772;2024-02-23T04:57:31;3.35;;;0.60;;
21309;SDS011;10814;51.722;8.772;2024-02-23T04:59:57;2.65;;;0.68;;
21309;SDS011;10814;51.722;8.772;2024-02-23T05:02:23;5.15;;;0.75;;
21309;SDS011;10814;51.722;8.772;2024-02-23T05:04:48;3.67;;;0.60;;
21309;SDS011;10814;51.722;8.772;2024-02-23T05:07:14;5.80;;;1.00;;
21309;SDS011;10814;51.722;8.772;2024-02-23T05:09:39;2.55;;;0.77;;
21309;SDS011;10814;51.722;8.772;2024-02-23T05:12:06;1.77;;;0.70;;
21309;SDS011;10814;51.722;8.772;2024-02-23T05:14:32;2.80;;;0.65;;
21309;SDS011;10814;51.722;8.772;2024-02-23T05:16:58;3.75;;;0.88;;
21309;SDS011;10814;51.722;8.772;2024-02-23T05:19:24;5.45;;;0.90;;
21309;SDS011;10814;51.722;8.772;2024-02-23T05:21:49;3.35;;;0.40;;
21309;SDS011;10814;51.722;8.772;2024-02-23T05:24:15;3.72;;;0.73;;
21309;SDS011;10814;51.722;8.772;2024-02-23T05:26:40;3.00;;;0.52;;
21309;SDS011;10814;51.722;8.772;2024-02-23T05:29:07;3.88;;;0.90;;
21309;SDS011;10814;51.722;8.772;2024-02-23T05:31:49;1.83;;;0.50;;
21309;SDS011;10814;51.722;8.772;2024-02-23T05:34:16;4.32;;;0.75;;
21309;SDS011;10814;51.722;8.772;2024-02-23T05:36:43;1.52;;;0.55;;
21309;SDS011;10814;51.722;8.772;2024-02-23T05:39:09;2.92;;;0.60;;
21309;SDS011;10814;51.722;8.772;2024-02-23T05:41:35;2.35;;;0.47;;
21309;SDS011;10814;51.722;8.772;2024-02-23T05:44:02;2.63;;;0.60;;
21309;SDS011;10814;51.722;8.772;2024-02-23T05:46:30;2.65;;;0.60;;
21309;SDS011;10814;51.722;8.772;2024-02-23T05:49:00;2.03;;;0.52;;
21309;SDS011;10814;51.722;8.772;2024-02-23T05:51:27;5.78;;;1.08;;
21309;SDS011;10814;51.722;8.772;2024-02-23T05:53:54;3.40;;;0.65;;
21309;SDS011;10814;51.722;8.772;2024-02-23T05:56:20;3.20;;;0.65;;
21309;SDS011;10814;51.722;8.772;2024-02-23T05:58:46;2.42;;;0.50;;
21309;SDS011;10814;51.722;8.772;2024-02-23T06:01:11;1.98;;;0.65;;
21309;SDS011;10814;51.722;8.772;2024-02-23T06:03:37;3.85;;;0.80;;
21309;SDS011;10814;51.722;8.772;2024-02-23T06:06:06;3.13;;;0.80;;
21309;SDS011;10814;51.722;8.772;2024-02-23T06:08:33;2.40;;;0.60;;
21309;SDS011;10814;51.722;8.772;2024-02-23T06:10:58;3.22;;;0.50;;
21309;SDS011;10814;51.722;8.772;2024-02-23T06:13:24;1.73;;;0.57;;
21309;SDS011;10814;51.722;8.772;2024-02-23T06:15:50;2.75;;;0.55;;
21309;SDS011;10814;51.722;8.772;2024-02-23T06:18:16;2.88;;;0.60;;
21309;SDS011;10814;51.722;8.772;2024-02-23T06:20:41;3.33;;;0.60;;
21309;SDS011;10814;51.722;8.772;2024-02-23T06:23:07;2.83;;;0.65;;
21309;SDS011;10814;51.722;8.772;2024-02-23T06:25:32;6.07;;;0.63;;
21309;SDS011;10814;51.722;8.772;2024-02-23T06:27:58;3.88;;;0.77;;
21309;SDS011;10814;51.722;8.772;2024-02-23T06:30:24;1.92;;;0.52;;
21309;SDS011;10814;51.722;8.772;2024-02-23T06:32:49;5.00;;;0.75;;
21309;SDS011;10814;51.722;8.772;2024-02-23T06:35:15;2.17;;;0.50;;
21309;SDS011;10814;51.722;8.772;2024-02-23T06:37:40;3.92;;;0.60;;
21309;SDS011;10814;51.722;8.772;2024-02-23T06:40:06;2.00;;;0.50;;
21309;SDS011;10814;51.722;8.772;2024-02-23T06:42:32;3.53;;;0.98;;
21309;SDS011;10814;51.722;8.772;2024-02-23T06:44:58;2.30;;;0.52;;
21309;SDS011;10814;51.722;8.772;2024-02-23T06:47:24;3.72;;;0.70;;
21309;SDS011;10814;51.722;8.772;2024-02-23T06:49:50;3.38;;;0.60;;
21309;SDS011;10814;51.722;8.772;2024-02-23T06:52:15;4.85;;;0.93;;
21309;SDS011;10814;51.722;8.772;2024-02-23T06:54:42;3.30;;;0.60;;
21309;SDS011;10814;51.722;8.772;2024-02-23T06:57:07;3.40;;;0.77;;
21309;SDS011;10814;51.722;8.772;2024-02-23T06:59:35;3.58;;;0.60;;
21309;SDS011;10814;51.722;8.772;2024-02-23T07:12:43;3.05;;;0.60;;
21309;SDS011;10814;51.722;8.772;2024-02-23T07:15:30;1.92;;;0.43;;
21309;SDS011;10814;51.722;8.772;2024-02-23T07:21:38;3.13;;;0.77;;
21309;SDS011;10814;51.722;8.772;2024-02-23T07:24:10;4.05;;;0.73;;
21309;SDS011;10814;51.722;8.772;2024-02-23T07:33:54;3.60;;;0.70;;
21309;SDS011;10814;51.722;8.772;2024-02-23T07:37:12;3.20;;;0.68;;
21309;SDS011;10814;51.722;8.772;2024-02-23T07:39:48;2.07;;;0.90;;
21309;SDS011;10814;51.722;8.772;2024-02-23T07:42:40;4.18;;;0.85;;
21309;SDS011;10814;51.722;8.772;2024-02-23T07:45:11;3.85;;;0.93;;
21309;SDS011;10814;51.722;8.772;2024-02-23T07:47:45;2.72;;;0.60;;
21309;SDS011;10814;51.722;8.772;2024-02-23T07:50:30;1.77;;;0.57;;
21309;SDS011;10814;51.722;8.772;2024-02-23T07:53:38;2.90;;;0.52;;
21309;SDS011;10814;51.722;8.772;2024-02-23T07:56:24;2.70;;;0.70;;
21309;SDS011;10814;51.722;8.772;2024-02-23T07:58:50;3.20;;;0.70;;
21309;SDS011;10814;51.722;8.772;2024-02-23T08:01:16;1.48;;;0.40;;
21309;SDS011;10814;51.722;8.772;2024-02-23T08:03:42;2.22;;;0.50;;
21309;SDS011;10814;51.722;8.772;2024-02-23T08:06:10;4.18;;;0.77;;
21309;SDS011;10814;51.722;8.772;2024-02-23T08:08:37;2.35;;;0.57;;
21309;SDS011;10814;51.722;8.772;2024-02-23T08:11:03;4.03;;;0.60;;
21309;SDS011;10814;51.722;8.772;2024-02-23T08:13:29;4.03;;;0.80;;
21309;SDS011;10814;51.722;8.772;2024-02-23T08:15:56;4.40;;;0.90;;
21309;SDS011;10814;51.722;8.772;2024-02-23T08:18:22;2.60;;;0.80;;
21309;SDS011;10814;51.722;8.772;2024-02-23T08:20:51;2.65;;;0.88;;
21309;SDS011;10814;51.722;8.772;2024-02-23T08:23:24;3.47;;;0.70;;
21309;SDS011;10814;51.722;8.772;2024-02-23T08:25:52;2.78;;;0.85;;
21309;SDS011;10814;51.722;8.772;2024-02-23T08:28:18;2.25;;;0.68;;
21309;SDS011;10814;51.722;8.772;2024-02-23T08:30:44;3.17;;;1.23;;
21309;SDS011;10814;51.722;8.772;2024-02-23T08:33:10;3.75;;;0.88;;
21309;SDS011;10814;51.722;8.772;2024-02-23T08:35:36;4.25;;;0.95;;
21309;SDS011;10814;51.722;8.772;2024-02-23T08:38:01;1.60;;;0.55;;
21309;SDS011;10814;51.722;8.772;2024-02-23T08:40:27;2.83;;;0.60;;
21309;SDS011;10814;51.722;8.772;2024-02-23T08:42:53;2.55;;;0.60;;
21309;SDS011;10814;51.722;8.772;2024-02-23T08:45:18;4.05;;;0.70;;
21309;SDS011;10814;51.722;8.772;2024-02-23T08:47:44;3.47;;;0.63;;
21309;SDS011;10814;51.722;8.772;2024-02-23T08:50:10;2.45;;;0.80;;
21309;SDS011;10814;51.722;8.772;2024-02-23T08:52:35;3.13;;;0.57;;
21309;SDS011;10814;51.722;8.772;2024-02-23T08:55:01;3.05;;;0.63;;
21309;SDS011;10814;51.722;8.772;2024-02-23T08:57:27;2.92;;;0.50;;
21309;SDS011;10814;51.722;8.772;2024-02-23T08:59:53;3.42;;;0.70;;
21309;SDS011;10814;51.722;8.772;2024-02-23T09:02:19;2.97;;;0.77;;
21309;SDS011;10814;51.722;8.772;2024-02-23T09:04:46;2.78;;;0.60;;
21309;SDS011;10814;51.722;8.772;2024-02-23T09:07:12;3.17;;;0.57;;
21309;SDS011;10814;51.722;8.772;2024-02-23T09:09:37;2.15;;;0.70;;
21309;SDS011;10814;51.722;8.772;2024-02-23T09:12:03;2.55;;;0.60;;
21309;SDS011;10814;51.722;8.772;2024-02-23T09:14:34;3.33;;;0.75;;
21309;SDS011;10814;51.722;8.772;2024-02-23T09:17:02;4.20;;;0.63;;
21309;SDS011;10814;51.722;8.772;2024-02-23T09:19:31;1.92;;;0.75;;
21309;SDS011;10814;51.722;8.772;2024-02-23T09:21:57;2.45;;;0.60;;
21309;SDS011;10814;51.722;8.772;2024-02-23T09:24:25;3.95;;;0.75;;
21309;SDS011;10814;51.722;8.772;2024-02-23T09:48:01;4.97;;;1.23;;
21309;SDS011;10814;51.722;8.772;2024-02-23T09:51:57;2.20;;;0.73;;
21309;SDS011;10814;51.722;8.772;2024-02-23T10:04:59;1.63;;;0.70;;
21309;SDS011;10814;51.722;8.772;2024-02-23T10:11:27;3.85;;;0.70;;
21309;SDS011;10814;51.722;8.772;2024-02-23T10:14:20;3.17;;;0.60;;
21309;SDS011;10814;51.722;8.772;2024-02-23T10:24:32;3.83;;;0.70;;
21309;SDS011;10814;51.722;8.772;2024-02-23T10:31:41;2.50;;;0.88;;
21309;SDS011;10814;51.722;8.772;2024-02-23T10:38:22;3.20;;;0.80;;
21309;SDS011;10814;51.722;8.772;2024-02-23T10:48:21;4.22;;;0.60;;
21309;SDS011;10814;51.722;8.772;2024-02-23T11:05:17;3.17;;;0.40;;
21309;SDS011;10814;51.722;8.772;2024-02-23T11:12:03;3.63;;;0.80;;
21309;SDS011;10814;51.722;8.772;2024-02-23T11:15:30;4.78;;;0.77;;
21309;SDS011;10814;51.722;8.772;2024-02-23T11:18:46;4.28;;;0.50;;
21309;SDS011;10814;51.722;8.772;2024-02-23T11:21:51;2.53;;;0.60;;
21309;SDS011;10814;51.722;8.772;2024-02-23T11:31:25;2.53;;;0.55;;
21309;SDS011;10814;51.722;8.772;2024-02-23T11:33:59;2.40;;;0.50;;
21309;SDS011;10814;51.722;8.772;2024-02-23T11:36:28;2.95;;;0.50;;
21309;SDS011;10814;51.722;8.772;2024-02-23T11:38:58;2.08;;;0.45;;
21309;SDS011;10814;51.722;8.772;2024-02-23T11:41:25;1.90;;;0.70;;
21309;SDS011;10814;51.722;8.772;2024-02-23T11:43:53;1.30;;;0.40;;
21309;SDS011;10814;51.722;8.772;2024-02-23T11:46:20;2.35;;;0.60;;
21309;SDS011;10814;51.722;8.772;2024-02-23T11:48:47;2.33;;;0.38;;
21309;SDS011;10814;51.722;8.772;2024-02-23T11:51:18;3.35;;;0.70;;
21309;SDS011;10814;51.722;8.772;2024-02-23T11:53:45;2.90;;;0.80;;
21309;SDS011;10814;51.722;8.772;2024-02-23T11:56:15;2.50;;;0.50;;
21309;SDS011;10814;51.722;8.772;2024-02-23T11:58:43;2.03;;;0.57;;
21309;SDS011;10814;51.722;8.772;2024-02-23T12:01:09;3.65;;;0.73;;
21309;SDS011;10814;51.722;8.772;2024-02-23T12:03:35;5.53;;;1.02;;
21309;SDS011;10814;51.722;8.772;2024-02-23T12:06:01;3.60;;;0.60;;
21309;SDS011;10814;51.722;8.772;2024-02-23T12:08:28;5.78;;;1.17;;
21309;SDS011;10814;51.722;8.772;2024-02-23T12:10:56;3.90;;;0.57;;
21309;SDS011;10814;51.722;8.772;2024-02-23T12:13:25;2.50;;;0.50;;
21309;SDS011;10814;51.722;8.772;2024-02-23T12:15:52;3.38;;;0.57;;
21309;SDS011;10814;51.722;8.772;2024-02-23T12:18:18;3.08;;;0.60;;
21309;SDS011;10814;51.722;8.772;2024-02-23T12:20:48;2.70;;;0.70;;
21309;SDS011;10814;51.722;8.772;2024-02-23T12:23:14;5.88;;;1.27;;
21309;SDS011;10814;51.722;8.772;2024-02-23T12:25:40;1.58;;;0.50;;
21309;SDS011;10814;51.722;8.772;2024-02-23T12:28:17;4.25;;;0.73;;
21309;SDS011;10814;51.722;8.772;2024-02-23T12:30:44;4.20;;;0.80;;
21309;SDS011;10814;51.722;8.772;2024-02-23T12:33:11;2.03;;;0.68;;
21309;SDS011;10814;51.722;8.772;2024-02-23T12:35:40;2.65;;;0.70;;
21309;SDS011;10814;51.722;8.772;2024-02-23T12:38:06;1.75;;;0.50;;
21309;SDS011;10814;51.722;8.772;2024-02-23T12:40:32;1.10;;;0.38;;
21309;SDS011;10814;51.722;8.772;2024-02-23T12:42:57;1.90;;;0.50;;
21309;SDS011;10814;51.722;8.772;2024-02-23T12:45:23;3.40;;;0.75;;
21309;SDS011;10814;51.722;8.772;2024-02-23T12:47:49;1.77;;;0.52;;
21309;SDS011;10814;51.722;8.772;2024-02-23T12:50:14;2.72;;;0.70;;
21309;SDS011;10814;51.722;8.772;2024-02-23T12:52:40;1.33;;;0.50;;
21309;SDS011;10814;51.722;8.772;2024-02-23T12:55:08;1.90;;;0.68;;
21309;SDS011;10814;51.722;8.772;2024-02-23T12:57:34;10.00;;;2.90;;
21309;SDS011;10814;51.722;8.772;2024-02-23T13:05:16;9.50;;;3.65;;
21309;SDS011;10814;51.722;8.772;2024-02-23T13:07:41;5.60;;;2.35;;
21309;SDS011;10814;51.722;8.772;2024-02-23T13:12:45;1.38;;;0.50;;
21309;SDS011;10814;51.722;8.772;2024-02-23T13:15:10;2.17;;;0.60;;
21309;SDS011;10814;51.722;8.772;2024-02-23T13:17:36;4.20;;;0.60;;
21309;SDS011;10814;51.722;8.772;2024-02-23T13:20:02;2.28;;;0.50;;
21309;SDS011;10814;51.722;8.772;2024-02-23T13:22:27;1.83;;;0.45;;
21309;SDS011;10814;51.722;8.772;2024-02-23T13:24:53;1.60;;;0.60;;
21309;SDS011;10814;51.722;8.772;2024-02-23T13:27:19;0.93;;;0.30;;
21309;SDS011;10814;51.722;8.772;2024-02-23T13:29:44;2.30;;;0.50;;
21309;SDS011;10814;51.722;8.772;2024-02-23T13:32:10;0.82;;;0.32;;
21309;SDS011;10814;51.722;8.772;2024-02-23T13:34:36;2.35;;;0.30;;
21309;SDS011;10814;51.722;8.772;2024-02-23T13:37:01;2.47;;;0.40;;
21309;SDS011;10814;51.722;8.772;2024-02-23T13:39:27;1.55;;;0.63;;
21309;SDS011;10814;51.722;8.772;2024-02-23T13:41:52;2.72;;;0.60;;
21309;SDS011;10814;51.722;8.772;2024-02-23T13:44:20;2.92;;;0.40;;
21309;SDS011;10814;51.722;8.772;2024-02-23T13:46:46;2.47;;;0.60;;
21309;SDS011;10814;51.722;8.772;2024-02-23T13:49:11;0.93;;;0.40;;
21309;SDS011;10814;51.722;8.772;2024-02-23T13:51:38;1.70;;;0.50;;
21309;SDS011;10814;51.722;8.772;2024-02-23T13:54:03;2.38;;;0.60;;
21309;SDS011;10814;51.722;8.772;2024-02-23T13:56:29;1.98;;;0.60;;
21309;SDS011;10814;51.722;8.772;2024-02-23T13:58:55;3.05;;;0.60;;
21309;SDS011;10814;51.722;8.772;2024-02-23T14:01:20;2.13;;;0.55;;
21309;SDS011;10814;51.722;8.772;2024-02-23T14:03:46;1.95;;;0.55;;
21309;SDS011;10814;51.722;8.772;2024-02-23T14:06:11;2.10;;;0.60;;
21309;SDS011;10814;51.722;8.772;2024-02-23T14:08:37;2.53;;;0.40;;
21309;SDS011;10814;51.722;8.772;2024-02-23T14:11:03;3.50;;;0.70;;
21309;SDS011;10814;51.722;8.772;2024-02-23T14:13:31;3.25;;;0.63;;
21309;SDS011;10814;51.722;8.772;2024-02-23T14:15:59;3.28;;;1.00;;
21309;SDS011;10814;51.722;8.772;2024-02-23T14:18:26;2.22;;;0.60;;
21309;SDS011;10814;51.722;8.772;2024-02-23T14:20:52;2.38;;;0.70;;
21309;SDS011;10814;51.722;8.772;2024-02-23T14:23:18;2.85;;;0.47;;
21309;SDS011;10814;51.722;8.772;2024-02-23T14:25:43;2.45;;;0.75;;
21309;SDS011;10814;51.722;8.772;2024-02-23T14:28:09;3.22;;;0.70;;
21309;SDS011;10814;51.722;8.772;2024-02-23T14:30:35;3.42;;;0.93;;
21309;SDS011;10814;51.722;8.772;2024-02-23T14:33:01;2.97;;;0.60;;
21309;SDS011;10814;51.722;8.772;2024-02-23T14:35:26;4.07;;;0.80;;
21309;SDS011;10814;51.722;8.772;2024-02-23T14:37:52;3.08;;;0.80;;
21309;SDS011;10814;51.722;8.772;2024-02-23T14:40:17;2.75;;;0.68;;
21309;SDS011;10814;51.722;8.772;2024-02-23T14:42:43;2.53;;;0.60;;
21309;SDS011;10814;51.722;8.772;2024-02-23T14:45:09;3.58;;;0.85;;
21309;SDS011;10814;51.722;8.772;2024-02-23T14:47:36;1.63;;;0.60;;
21309;SDS011;10814;51.722;8.772;2024-02-23T14:50:02;5.72;;;1.00;;
21309;SDS011;10814;51.722;8.772;2024-02-23T14:52:29;2.83;;;0.57;;
21309;SDS011;10814;51.722;8.772;2024-02-23T14:54:54;2.85;;;0.63;;
21309;SDS011;10814;51.722;8.772;2024-02-23T14:57:20;2.50;;;0.63;;
21309;SDS011;10814;51.722;8.772;2024-02-23T14:59:46;3.80;;;0.70;;
21309;SDS011;10814;51.722;8.772;2024-02-23T15:02:17;3.15;;;0.90;;
21309;SDS011;10814;51.722;8.772;2024-02-23T15:04:45;2.88;;;0.77;;
21309;SDS011;10814;51.722;8.772;2024-02-23T15:07:10;4.32;;;0.73;;
21309;SDS011;10814;51.722;8.772;2024-02-23T15:09:36;2.38;;;0.70;;
21309;SDS011;10814;51.722;8.772;2024-02-23T15:12:02;2.90;;;0.82;;
21309;SDS011;10814;51.722;8.772;2024-02-23T15:14:28;3.20;;;0.60;;
21309;SDS011;10814;51.722;8.772;2024-02-23T15:16:53;1.80;;;0.55;;
21309;SDS011;10814;51.722;8.772;2024-02-23T15:19:20;3.50;;;0.60;;
21309;SDS011;10814;51.722;8.772;2024-02-23T15:21:46;1.73;;;0.60;;
21309;SDS011;10814;51.722;8.772;2024-02-23T15:24:12;2.80;;;0.57;;
21309;SDS011;10814;51.722;8.772;2024-02-23T15:26:38;2.85;;;0.82;;
21309;SDS011;10814;51.722;8.772;2024-02-23T15:29:04;2.80;;;0.88;;
21309;SDS011;10814;51.722;8.772;2024-02-23T15:31:29;3.40;;;1.40;;
21309;SDS011;10814;51.722;8.772;2024-02-23T15:33:55;5.22;;;1.58;;
21309;SDS011;10814;51.722;8.772;2024-02-23T15:36:22;4.32;;;1.70;;
21309;SDS011;10814;51.722;8.772;2024-02-23T15:38:48;5.03;;;1.77;;
21309;SDS011;10814;51.722;8.772;2024-02-23T15:41:13;4.97;;;1.63;;
21309;SDS011;10814;51.722;8.772;2024-02-23T15:43:39;4.20;;;1.80;;
21309;SDS011;10814;51.722;8.772;2024-02-23T15:46:04;2.83;;;1.17;;
21309;SDS011;10814;51.722;8.772;2024-02-23T15:48:30;4.28;;;0.70;;
21309;SDS011;10814;51.722;8.772;2024-02-23T15:50:56;1.90;;;0.80;;
21309;SDS011;10814;51.722;8.772;2024-02-23T15:53:22;2.63;;;1.10;;
21309;SDS011;10814;51.722;8.772;2024-02-23T15:55:48;2.78;;;0.90;;
21309;SDS011;10814;51.722;8.772;2024-02-23T15:58:13;3.45;;;0.75;;
21309;SDS011;10814;51.722;8.772;2024-02-23T16:00:45;3.05;;;0.80;;
21309;SDS011;10814;51.722;8.772;2024-02-23T16:03:10;5.18;;;0.70;;
21309;SDS011;10814;51.722;8.772;2024-02-23T16:05:36;3.42;;;0.90;;
21309;SDS011;10814;51.722;8.772;2024-02-23T16:08:01;2.83;;;0.80;;
21309;SDS011;10814;51.722;8.772;2024-02-23T16:10:29;2.20;;;0.68;;
21309;SDS011;10814;51.722;8.772;2024-02-23T16:12:55;2.25;;;0.60;;
21309;SDS011;10814;51.722;8.772;2024-02-23T16:15:23;1.58;;;0.60;;
21309;SDS011;10814;51.722;8.772;2024-02-23T16:17:49;1.85;;;0.82;;
21309;SDS011;10814;51.722;8.772;2024-02-23T16:20:15;3.70;;;0.93;;
21309;SDS011;10814;51.722;8.772;2024-02-23T16:22:43;2.90;;;0.65;;
21309;SDS011;10814;51.722;8.772;2024-02-23T16:25:09;2.63;;;0.90;;
21309;SDS011;10814;51.722;8.772;2024-02-23T16:27:35;2.72;;;0.70;;
21309;SDS011;10814;51.722;8.772;2024-02-23T16:30:01;2.28;;;0.88;;
21309;SDS011;10814;51.722;8.772;2024-02-23T16:32:27;4.32;;;0.90;;
21309;SDS011;10814;51.722;8.772;2024-02-23T16:34:52;3.00;;;0.90;;
21309;SDS011;10814;51.722;8.772;2024-02-23T16:37:18;3.22;;;0.93;;
21309;SDS011;10814;51.722;8.772;2024-02-23T16:39:44;2.25;;;1.00;;
21309;SDS011;10814;51.722;8.772;2024-02-23T16:42:09;3.17;;;1.00;;
21309;SDS011;10814;51.722;8.772;2024-02-23T16:44:35;4.22;;;0.93;;